Terminal Aerodrome Forecast
Issued by NWS

Home | Current Version | Previous Version | Text Only | Print | Product List | Glossary On
Versions: 1 2 3 4 5 6 7 8 9 10 11 12 13
413
FTUS42 KTBW 091720
TAFLAL
TAF
KLAL 091720Z 0918/1018 27014G19KT P6SM BKN050
     FM100000 29012KT P6SM BKN050
     FM100900 32005KT P6SM SCT040
     FM101500 32012KT P6SM BKN040
     FM101700 32012G18KT P6SM SCT040=

USA.gov is the U.S. government's official web portal to all federal, state and local government web resources and services.